sensor_id;sensor_type;location;lat;lon;timestamp;P1;durP1;ratioP1;P2;durP2;ratioP2
54428;SDS011;40337;52.978;6.310;2023-04-28T00:01:08;13.07;;;10.57;;
54428;SDS011;40337;52.978;6.310;2023-04-28T00:03:34;10.98;;;9.85;;
54428;SDS011;40337;52.978;6.310;2023-04-28T00:06:00;12.20;;;10.10;;
54428;SDS011;40337;52.978;6.310;2023-04-28T00:08:26;12.38;;;9.40;;
54428;SDS011;40337;52.978;6.310;2023-04-28T00:10:52;12.90;;;10.02;;
54428;SDS011;40337;52.978;6.310;2023-04-28T00:13:17;11.88;;;9.65;;
54428;SDS011;40337;52.978;6.310;2023-04-28T00:15:43;11.30;;;9.90;;
54428;SDS011;40337;52.978;6.310;2023-04-28T00:18:08;12.70;;;9.90;;
54428;SDS011;40337;52.978;6.310;2023-04-28T00:20:34;12.93;;;9.77;;
54428;SDS011;40337;52.978;6.310;2023-04-28T00:23:00;12.70;;;9.00;;
54428;SDS011;40337;52.978;6.310;2023-04-28T00:25:25;11.90;;;9.60;;
54428;SDS011;40337;52.978;6.310;2023-04-28T00:27:51;13.65;;;9.43;;
54428;SDS011;40337;52.978;6.310;2023-04-28T00:30:16;10.23;;;8.75;;
54428;SDS011;40337;52.978;6.310;2023-04-28T00:32:42;10.45;;;9.35;;
54428;SDS011;40337;52.978;6.310;2023-04-28T00:35:07;10.80;;;9.30;;
54428;SDS011;40337;52.978;6.310;2023-04-28T00:37:36;11.27;;;8.32;;
54428;SDS011;40337;52.978;6.310;2023-04-28T00:40:02;11.13;;;9.05;;
54428;SDS011;40337;52.978;6.310;2023-04-28T00:42:29;12.98;;;8.90;;
54428;SDS011;40337;52.978;6.310;2023-04-28T00:44:55;11.13;;;8.27;;
54428;SDS011;40337;52.978;6.310;2023-04-28T00:47:20;12.23;;;8.68;;
54428;SDS011;40337;52.978;6.310;2023-04-28T00:49:46;10.40;;;8.88;;
54428;SDS011;40337;52.978;6.310;2023-04-28T00:52:13;11.13;;;8.70;;
54428;SDS011;40337;52.978;6.310;2023-04-28T00:54:39;11.23;;;7.90;;
54428;SDS011;40337;52.978;6.310;2023-04-28T00:57:07;8.80;;;7.70;;
54428;SDS011;40337;52.978;6.310;2023-04-28T00:59:33;11.98;;;8.65;;
54428;SDS011;40337;52.978;6.310;2023-04-28T01:01:59;9.43;;;8.40;;
54428;SDS011;40337;52.978;6.310;2023-04-28T01:04:25;11.25;;;8.57;;
54428;SDS011;40337;52.978;6.310;2023-04-28T01:06:52;9.98;;;7.93;;
54428;SDS011;40337;52.978;6.310;2023-04-28T01:09:19;11.43;;;8.55;;
54428;SDS011;40337;52.978;6.310;2023-04-28T01:11:45;12.57;;;8.30;;
54428;SDS011;40337;52.978;6.310;2023-04-28T01:14:11;11.35;;;7.95;;
54428;SDS011;40337;52.978;6.310;2023-04-28T01:16:36;11.07;;;8.10;;
54428;SDS011;40337;52.978;6.310;2023-04-28T01:19:02;9.65;;;8.50;;
54428;SDS011;40337;52.978;6.310;2023-04-28T01:21:32;10.68;;;8.13;;
54428;SDS011;40337;52.978;6.310;2023-04-28T01:23:58;10.02;;;8.13;;
54428;SDS011;40337;52.978;6.310;2023-04-28T01:26:24;12.43;;;8.32;;
54428;SDS011;40337;52.978;6.310;2023-04-28T01:28:50;9.98;;;8.00;;
54428;SDS011;40337;52.978;6.310;2023-04-28T01:31:15;10.73;;;8.48;;
54428;SDS011;40337;52.978;6.310;2023-04-28T01:33:41;10.75;;;8.57;;
54428;SDS011;40337;52.978;6.310;2023-04-28T01:36:07;12.10;;;8.27;;
54428;SDS011;40337;52.978;6.310;2023-04-28T01:38:33;9.80;;;7.97;;
54428;SDS011;40337;52.978;6.310;2023-04-28T01:40:58;11.38;;;7.97;;
54428;SDS011;40337;52.978;6.310;2023-04-28T01:43:24;11.02;;;8.30;;
54428;SDS011;40337;52.978;6.310;2023-04-28T01:45:49;10.60;;;8.45;;
54428;SDS011;40337;52.978;6.310;2023-04-28T01:48:15;11.90;;;8.48;;
54428;SDS011;40337;52.978;6.310;2023-04-28T01:50:41;9.93;;;8.57;;
54428;SDS011;40337;52.978;6.310;2023-04-28T01:53:07;10.68;;;8.98;;
54428;SDS011;40337;52.978;6.310;2023-04-28T01:55:32;11.35;;;9.07;;
54428;SDS011;40337;52.978;6.310;2023-04-28T01:57:58;12.40;;;8.63;;
54428;SDS011;40337;52.978;6.310;2023-04-28T02:00:23;10.65;;;8.57;;
54428;SDS011;40337;52.978;6.310;2023-04-28T02:02:49;13.15;;;9.20;;
54428;SDS011;40337;52.978;6.310;2023-04-28T02:05:15;11.98;;;9.68;;
54428;SDS011;40337;52.978;6.310;2023-04-28T02:07:40;11.43;;;9.63;;
54428;SDS011;40337;52.978;6.310;2023-04-28T02:10:06;10.98;;;9.18;;
54428;SDS011;40337;52.978;6.310;2023-04-28T02:12:32;11.25;;;9.68;;
54428;SDS011;40337;52.978;6.310;2023-04-28T02:14:58;11.00;;;9.50;;
54428;SDS011;40337;52.978;6.310;2023-04-28T02:17:25;10.65;;;9.30;;
54428;SDS011;40337;52.978;6.310;2023-04-28T02:19:54;11.80;;;9.90;;
54428;SDS011;40337;52.978;6.310;2023-04-28T02:22:23;14.73;;;10.45;;
54428;SDS011;40337;52.978;6.310;2023-04-28T02:24:48;13.68;;;10.23;;
54428;SDS011;40337;52.978;6.310;2023-04-28T02:27:14;11.60;;;10.18;;
54428;SDS011;40337;52.978;6.310;2023-04-28T02:29:40;12.70;;;10.68;;
54428;SDS011;40337;52.978;6.310;2023-04-28T02:32:06;12.77;;;10.55;;
54428;SDS011;40337;52.978;6.310;2023-04-28T02:34:32;11.45;;;10.25;;
54428;SDS011;40337;52.978;6.310;2023-04-28T02:36:57;13.32;;;11.13;;
54428;SDS011;40337;52.978;6.310;2023-04-28T02:39:23;12.43;;;10.82;;
54428;SDS011;40337;52.978;6.310;2023-04-28T02:41:50;13.13;;;10.52;;
54428;SDS011;40337;52.978;6.310;2023-04-28T02:44:19;11.85;;;10.18;;
54428;SDS011;40337;52.978;6.310;2023-04-28T02:46:45;14.38;;;11.00;;
54428;SDS011;40337;52.978;6.310;2023-04-28T02:49:11;13.35;;;11.20;;
54428;SDS011;40337;52.978;6.310;2023-04-28T02:51:37;14.98;;;10.85;;
54428;SDS011;40337;52.978;6.310;2023-04-28T02:54:02;14.43;;;10.75;;
54428;SDS011;40337;52.978;6.310;2023-04-28T02:56:28;13.40;;;10.95;;
54428;SDS011;40337;52.978;6.310;2023-04-28T02:58:54;12.82;;;11.07;;
54428;SDS011;40337;52.978;6.310;2023-04-28T03:01:20;13.75;;;11.30;;
54428;SDS011;40337;52.978;6.310;2023-04-28T03:03:46;12.45;;;10.88;;
54428;SDS011;40337;52.978;6.310;2023-04-28T03:06:12;14.65;;;11.27;;
54428;SDS011;40337;52.978;6.310;2023-04-28T03:08:37;15.15;;;12.07;;
54428;SDS011;40337;52.978;6.310;2023-04-28T03:11:03;13.15;;;11.68;;
54428;SDS011;40337;52.978;6.310;2023-04-28T03:13:29;13.35;;;11.43;;
54428;SDS011;40337;52.978;6.310;2023-04-28T03:15:54;13.50;;;11.30;;
54428;SDS011;40337;52.978;6.310;2023-04-28T03:18:20;15.25;;;12.20;;
54428;SDS011;40337;52.978;6.310;2023-04-28T03:20:47;14.70;;;12.15;;
54428;SDS011;40337;52.978;6.310;2023-04-28T03:23:13;13.85;;;12.00;;
54428;SDS011;40337;52.978;6.310;2023-04-28T03:25:39;13.10;;;11.70;;
54428;SDS011;40337;52.978;6.310;2023-04-28T03:28:04;13.73;;;11.05;;
54428;SDS011;40337;52.978;6.310;2023-04-28T03:30:30;15.07;;;11.70;;
54428;SDS011;40337;52.978;6.310;2023-04-28T03:32:56;14.40;;;11.93;;
54428;SDS011;40337;52.978;6.310;2023-04-28T03:35:21;15.27;;;12.18;;
54428;SDS011;40337;52.978;6.310;2023-04-28T03:37:47;16.20;;;12.05;;
54428;SDS011;40337;52.978;6.310;2023-04-28T03:40:13;14.07;;;12.20;;
54428;SDS011;40337;52.978;6.310;2023-04-28T03:42:38;14.15;;;11.73;;
54428;SDS011;40337;52.978;6.310;2023-04-28T03:45:04;14.93;;;12.82;;
54428;SDS011;40337;52.978;6.310;2023-04-28T03:47:31;15.55;;;13.02;;
54428;SDS011;40337;52.978;6.310;2023-04-28T03:49:57;15.15;;;12.50;;
54428;SDS011;40337;52.978;6.310;2023-04-28T03:52:23;17.13;;;13.00;;
54428;SDS011;40337;52.978;6.310;2023-04-28T03:54:49;17.17;;;13.38;;
54428;SDS011;40337;52.978;6.310;2023-04-28T03:57:14;15.55;;;13.77;;
54428;SDS011;40337;52.978;6.310;2023-04-28T03:59:40;15.82;;;13.38;;
54428;SDS011;40337;52.978;6.310;2023-04-28T04:02:05;15.23;;;13.05;;
54428;SDS011;40337;52.978;6.310;2023-04-28T04:04:31;16.67;;;13.70;;
54428;SDS011;40337;52.978;6.310;2023-04-28T04:06:57;15.63;;;12.95;;
54428;SDS011;40337;52.978;6.310;2023-04-28T04:09:23;18.33;;;13.75;;
54428;SDS011;40337;52.978;6.310;2023-04-28T04:11:48;15.65;;;14.02;;
54428;SDS011;40337;52.978;6.310;2023-04-28T04:14:14;16.10;;;13.85;;
54428;SDS011;40337;52.978;6.310;2023-04-28T04:16:40;17.60;;;13.48;;
54428;SDS011;40337;52.978;6.310;2023-04-28T04:19:06;16.60;;;13.68;;
54428;SDS011;40337;52.978;6.310;2023-04-28T04:21:31;16.25;;;13.95;;
54428;SDS011;40337;52.978;6.310;2023-04-28T04:23:57;17.15;;;14.30;;
54428;SDS011;40337;52.978;6.310;2023-04-28T04:26:22;18.05;;;14.93;;
54428;SDS011;40337;52.978;6.310;2023-04-28T04:28:48;16.25;;;13.65;;
54428;SDS011;40337;52.978;6.310;2023-04-28T04:31:13;17.27;;;14.82;;
54428;SDS011;40337;52.978;6.310;2023-04-28T04:33:39;19.10;;;15.52;;
54428;SDS011;40337;52.978;6.310;2023-04-28T04:36:05;17.50;;;14.23;;
54428;SDS011;40337;52.978;6.310;2023-04-28T04:38:31;18.15;;;13.82;;
54428;SDS011;40337;52.978;6.310;2023-04-28T04:40:56;15.95;;;13.38;;
54428;SDS011;40337;52.978;6.310;2023-04-28T04:43:22;19.38;;;14.57;;
54428;SDS011;40337;52.978;6.310;2023-04-28T04:45:48;18.02;;;14.80;;
54428;SDS011;40337;52.978;6.310;2023-04-28T04:48:13;17.45;;;14.32;;
54428;SDS011;40337;52.978;6.310;2023-04-28T04:50:39;18.30;;;15.00;;
54428;SDS011;40337;52.978;6.310;2023-04-28T04:53:06;18.65;;;15.02;;
54428;SDS011;40337;52.978;6.310;2023-04-28T04:55:31;18.17;;;15.10;;
54428;SDS011;40337;52.978;6.310;2023-04-28T04:57:57;16.92;;;14.68;;
54428;SDS011;40337;52.978;6.310;2023-04-28T05:00:23;20.70;;;15.77;;
54428;SDS011;40337;52.978;6.310;2023-04-28T05:02:48;18.38;;;16.23;;
54428;SDS011;40337;52.978;6.310;2023-04-28T05:05:14;18.20;;;14.93;;
54428;SDS011;40337;52.978;6.310;2023-04-28T05:07:40;19.25;;;15.68;;
54428;SDS011;40337;52.978;6.310;2023-04-28T05:10:05;19.13;;;15.50;;
54428;SDS011;40337;52.978;6.310;2023-04-28T05:12:32;17.92;;;15.05;;
54428;SDS011;40337;52.978;6.310;2023-04-28T05:14:57;18.63;;;14.98;;
54428;SDS011;40337;52.978;6.310;2023-04-28T05:17:23;17.45;;;14.82;;
54428;SDS011;40337;52.978;6.310;2023-04-28T05:19:49;17.95;;;15.18;;
54428;SDS011;40337;52.978;6.310;2023-04-28T05:22:14;18.42;;;14.98;;
54428;SDS011;40337;52.978;6.310;2023-04-28T05:24:40;17.33;;;15.30;;
54428;SDS011;40337;52.978;6.310;2023-04-28T05:27:05;19.67;;;14.52;;
54428;SDS011;40337;52.978;6.310;2023-04-28T05:29:31;18.60;;;14.82;;
54428;SDS011;40337;52.978;6.310;2023-04-28T05:31:56;19.50;;;14.75;;
54428;SDS011;40337;52.978;6.310;2023-04-28T05:34:22;18.85;;;15.38;;
54428;SDS011;40337;52.978;6.310;2023-04-28T05:36:48;17.50;;;15.13;;
54428;SDS011;40337;52.978;6.310;2023-04-28T05:39:13;17.90;;;14.73;;
54428;SDS011;40337;52.978;6.310;2023-04-28T05:41:39;16.83;;;14.38;;
54428;SDS011;40337;52.978;6.310;2023-04-28T05:44:04;17.30;;;14.50;;
54428;SDS011;40337;52.978;6.310;2023-04-28T05:46:30;17.35;;;14.73;;
54428;SDS011;40337;52.978;6.310;2023-04-28T05:48:56;16.70;;;14.18;;
54428;SDS011;40337;52.978;6.310;2023-04-28T05:51:21;17.60;;;14.27;;
54428;SDS011;40337;52.978;6.310;2023-04-28T05:53:47;18.60;;;14.73;;
54428;SDS011;40337;52.978;6.310;2023-04-28T05:56:16;17.15;;;13.90;;
54428;SDS011;40337;52.978;6.310;2023-04-28T05:58:41;18.17;;;14.75;;
54428;SDS011;40337;52.978;6.310;2023-04-28T06:01:09;16.92;;;14.85;;
54428;SDS011;40337;52.978;6.310;2023-04-28T06:03:35;19.58;;;14.43;;
54428;SDS011;40337;52.978;6.310;2023-04-28T06:06:01;18.58;;;15.27;;
54428;SDS011;40337;52.978;6.310;2023-04-28T06:08:26;17.20;;;14.05;;
54428;SDS011;40337;52.978;6.310;2023-04-28T06:10:52;18.23;;;14.32;;
54428;SDS011;40337;52.978;6.310;2023-04-28T06:13:17;17.20;;;14.00;;
54428;SDS011;40337;52.978;6.310;2023-04-28T06:15:43;17.38;;;14.18;;
54428;SDS011;40337;52.978;6.310;2023-04-28T06:18:08;15.95;;;14.18;;
54428;SDS011;40337;52.978;6.310;2023-04-28T06:20:35;18.25;;;13.45;;
54428;SDS011;40337;52.978;6.310;2023-04-28T06:23:00;16.83;;;14.25;;
54428;SDS011;40337;52.978;6.310;2023-04-28T06:25:27;17.83;;;14.00;;
54428;SDS011;40337;52.978;6.310;2023-04-28T06:27:53;18.88;;;14.45;;
54428;SDS011;40337;52.978;6.310;2023-04-28T06:30:19;17.35;;;13.43;;
54428;SDS011;40337;52.978;6.310;2023-04-28T06:32:47;16.08;;;13.95;;
54428;SDS011;40337;52.978;6.310;2023-04-28T06:35:13;17.80;;;14.73;;
54428;SDS011;40337;52.978;6.310;2023-04-28T06:37:40;17.58;;;14.13;;
54428;SDS011;40337;52.978;6.310;2023-04-28T06:40:05;16.13;;;13.55;;
54428;SDS011;40337;52.978;6.310;2023-04-28T06:42:31;17.08;;;13.60;;
54428;SDS011;40337;52.978;6.310;2023-04-28T06:44:57;16.73;;;13.05;;
54428;SDS011;40337;52.978;6.310;2023-04-28T06:47:23;17.05;;;13.57;;
54428;SDS011;40337;52.978;6.310;2023-04-28T06:49:49;17.00;;;13.52;;
54428;SDS011;40337;52.978;6.310;2023-04-28T06:52:15;16.20;;;12.43;;
54428;SDS011;40337;52.978;6.310;2023-04-28T06:54:41;15.82;;;12.77;;
54428;SDS011;40337;52.978;6.310;2023-04-28T06:57:06;15.00;;;12.25;;
54428;SDS011;40337;52.978;6.310;2023-04-28T06:59:32;15.43;;;12.23;;
54428;SDS011;40337;52.978;6.310;2023-04-28T07:01:58;14.90;;;12.15;;
54428;SDS011;40337;52.978;6.310;2023-04-28T07:04:24;13.52;;;11.80;;
54428;SDS011;40337;52.978;6.310;2023-04-28T07:06:51;14.18;;;12.32;;
54428;SDS011;40337;52.978;6.310;2023-04-28T07:09:16;14.10;;;12.10;;
54428;SDS011;40337;52.978;6.310;2023-04-28T07:11:42;14.80;;;12.13;;
54428;SDS011;40337;52.978;6.310;2023-04-28T07:14:09;13.70;;;11.32;;
54428;SDS011;40337;52.978;6.310;2023-04-28T07:16:34;13.68;;;11.43;;
54428;SDS011;40337;52.978;6.310;2023-04-28T07:19:00;13.95;;;11.43;;
54428;SDS011;40337;52.978;6.310;2023-04-28T07:21:26;15.82;;;11.93;;
54428;SDS011;40337;52.978;6.310;2023-04-28T07:23:52;13.40;;;11.73;;
54428;SDS011;40337;52.978;6.310;2023-04-28T07:26:21;16.55;;;12.23;;
54428;SDS011;40337;52.978;6.310;2023-04-28T07:28:47;16.60;;;12.48;;
54428;SDS011;40337;52.978;6.310;2023-04-28T07:31:12;14.95;;;12.13;;
54428;SDS011;40337;52.978;6.310;2023-04-28T07:33:38;14.25;;;11.80;;
54428;SDS011;40337;52.978;6.310;2023-04-28T07:36:03;14.07;;;11.45;;
54428;SDS011;40337;52.978;6.310;2023-04-28T07:38:29;13.65;;;11.55;;
54428;SDS011;40337;52.978;6.310;2023-04-28T07:40:55;13.18;;;11.43;;
54428;SDS011;40337;52.978;6.310;2023-04-28T07:43:21;14.60;;;11.15;;
54428;SDS011;40337;52.978;6.310;2023-04-28T07:45:46;14.98;;;11.60;;
54428;SDS011;40337;52.978;6.310;2023-04-28T07:48:13;13.15;;;11.50;;
54428;SDS011;40337;52.978;6.310;2023-04-28T07:50:40;14.70;;;11.25;;
54428;SDS011;40337;52.978;6.310;2023-04-28T07:53:05;13.52;;;10.90;;
54428;SDS011;40337;52.978;6.310;2023-04-28T07:55:31;12.55;;;11.25;;
54428;SDS011;40337;52.978;6.310;2023-04-28T07:57:56;14.65;;;11.07;;
54428;SDS011;40337;52.978;6.310;2023-04-28T08:00:22;12.70;;;10.75;;
54428;SDS011;40337;52.978;6.310;2023-04-28T08:02:48;13.48;;;10.95;;
54428;SDS011;40337;52.978;6.310;2023-04-28T08:05:15;13.07;;;11.15;;
54428;SDS011;40337;52.978;6.310;2023-04-28T08:07:41;14.27;;;11.23;;
54428;SDS011;40337;52.978;6.310;2023-04-28T08:10:08;14.05;;;11.00;;
54428;SDS011;40337;52.978;6.310;2023-04-28T08:12:34;14.85;;;11.20;;
54428;SDS011;40337;52.978;6.310;2023-04-28T08:15:00;12.68;;;11.32;;
54428;SDS011;40337;52.978;6.310;2023-04-28T08:17:26;14.23;;;11.63;;
54428;SDS011;40337;52.978;6.310;2023-04-28T08:19:51;13.95;;;11.35;;
54428;SDS011;40337;52.978;6.310;2023-04-28T08:22:17;14.00;;;12.40;;
54428;SDS011;40337;52.978;6.310;2023-04-28T08:24:42;15.70;;;13.13;;
54428;SDS011;40337;52.978;6.310;2023-04-28T08:27:08;15.52;;;12.75;;
54428;SDS011;40337;52.978;6.310;2023-04-28T08:29:33;16.77;;;12.50;;
54428;SDS011;40337;52.978;6.310;2023-04-28T08:31:59;13.25;;;11.90;;
54428;SDS011;40337;52.978;6.310;2023-04-28T08:34:28;15.48;;;12.57;;
54428;SDS011;40337;52.978;6.310;2023-04-28T08:36:54;15.77;;;13.25;;
54428;SDS011;40337;52.978;6.310;2023-04-28T08:39:19;13.75;;;11.73;;
54428;SDS011;40337;52.978;6.310;2023-04-28T08:41:47;13.55;;;12.13;;
54428;SDS011;40337;52.978;6.310;2023-04-28T08:44:13;12.70;;;11.00;;
54428;SDS011;40337;52.978;6.310;2023-04-28T08:46:42;14.43;;;12.25;;
54428;SDS011;40337;52.978;6.310;2023-04-28T08:49:11;13.23;;;11.80;;
54428;SDS011;40337;52.978;6.310;2023-04-28T08:51:43;13.35;;;10.95;;
54428;SDS011;40337;52.978;6.310;2023-04-28T08:54:19;14.32;;;11.70;;
54428;SDS011;40337;52.978;6.310;2023-04-28T08:56:47;14.05;;;10.45;;
54428;SDS011;40337;52.978;6.310;2023-04-28T08:59:13;11.70;;;10.10;;
54428;SDS011;40337;52.978;6.310;2023-04-28T09:01:39;13.80;;;10.68;;
54428;SDS011;40337;52.978;6.310;2023-04-28T09:04:05;12.93;;;10.65;;
54428;SDS011;40337;52.978;6.310;2023-04-28T09:06:31;12.88;;;10.88;;
54428;SDS011;40337;52.978;6.310;2023-04-28T09:11:57;14.27;;;10.48;;
54428;SDS011;40337;52.978;6.310;2023-04-28T09:14:26;13.32;;;9.95;;
54428;SDS011;40337;52.978;6.310;2023-04-28T09:16:52;14.98;;;11.45;;
54428;SDS011;40337;52.978;6.310;2023-04-28T09:19:18;13.07;;;11.75;;
54428;SDS011;40337;52.978;6.310;2023-04-28T09:21:45;13.05;;;10.68;;
54428;SDS011;40337;52.978;6.310;2023-04-28T09:24:24;12.73;;;10.60;;
54428;SDS011;40337;52.978;6.310;2023-04-28T09:26:50;13.70;;;10.48;;
54428;SDS011;40337;52.978;6.310;2023-04-28T09:29:16;13.35;;;10.60;;
54428;SDS011;40337;52.978;6.310;2023-04-28T09:31:41;13.38;;;11.07;;
54428;SDS011;40337;52.978;6.310;2023-04-28T09:34:07;11.88;;;10.40;;
54428;SDS011;40337;52.978;6.310;2023-04-28T09:36:33;11.73;;;10.45;;
54428;SDS011;40337;52.978;6.310;2023-04-28T09:38:59;12.93;;;11.15;;
54428;SDS011;40337;52.978;6.310;2023-04-28T09:41:38;11.20;;;9.70;;
54428;SDS011;40337;52.978;6.310;2023-04-28T09:46:40;11.07;;;9.80;;
54428;SDS011;40337;52.978;6.310;2023-04-28T09:49:07;14.32;;;10.00;;
54428;SDS011;40337;52.978;6.310;2023-04-28T09:51:33;12.60;;;10.65;;
54428;SDS011;40337;52.978;6.310;2023-04-28T09:53:59;12.30;;;9.90;;
54428;SDS011;40337;52.978;6.310;2023-04-28T09:56:27;11.95;;;9.70;;
54428;SDS011;40337;52.978;6.310;2023-04-28T09:58:54;11.65;;;9.77;;
54428;SDS011;40337;52.978;6.310;2023-04-28T10:01:23;12.23;;;9.75;;
54428;SDS011;40337;52.978;6.310;2023-04-28T10:03:49;12.30;;;10.18;;
54428;SDS011;40337;52.978;6.310;2023-04-28T10:06:17;9.95;;;8.90;;
54428;SDS011;40337;52.978;6.310;2023-04-28T10:08:43;11.75;;;9.60;;
54428;SDS011;40337;52.978;6.310;2023-04-28T10:11:12;11.20;;;9.70;;
54428;SDS011;40337;52.978;6.310;2023-04-28T10:13:41;10.93;;;9.50;;
54428;SDS011;40337;52.978;6.310;2023-04-28T10:16:08;10.95;;;9.25;;
54428;SDS011;40337;52.978;6.310;2023-04-28T10:18:34;11.15;;;9.10;;
54428;SDS011;40337;52.978;6.310;2023-04-28T10:21:01;10.65;;;9.55;;
54428;SDS011;40337;52.978;6.310;2023-04-28T10:26:18;10.07;;;9.00;;
54428;SDS011;40337;52.978;6.310;2023-04-28T10:31:18;10.88;;;8.93;;
54428;SDS011;40337;52.978;6.310;2023-04-28T10:33:45;10.73;;;8.48;;
54428;SDS011;40337;52.978;6.310;2023-04-28T10:36:45;11.27;;;8.82;;
54428;SDS011;40337;52.978;6.310;2023-04-28T10:39:18;9.70;;;8.65;;
54428;SDS011;40337;52.978;6.310;2023-04-28T10:41:45;9.18;;;8.27;;
54428;SDS011;40337;52.978;6.310;2023-04-28T10:47:10;9.38;;;8.38;;
54428;SDS011;40337;52.978;6.310;2023-04-28T11:00:39;9.70;;;8.48;;
54428;SDS011;40337;52.978;6.310;2023-04-28T11:03:05;9.80;;;8.80;;
54428;SDS011;40337;52.978;6.310;2023-04-28T11:05:30;10.73;;;8.75;;
54428;SDS011;40337;52.978;6.310;2023-04-28T11:11:10;12.88;;;8.82;;
54428;SDS011;40337;52.978;6.310;2023-04-28T11:13:43;10.38;;;8.60;;
54428;SDS011;40337;52.978;6.310;2023-04-28T11:16:16;11.95;;;8.68;;
54428;SDS011;40337;52.978;6.310;2023-04-28T11:18:51;10.93;;;8.00;;
54428;SDS011;40337;52.978;6.310;2023-04-28T11:21:20;9.63;;;8.60;;
54428;SDS011;40337;52.978;6.310;2023-04-28T11:23:47;10.27;;;8.63;;
54428;SDS011;40337;52.978;6.310;2023-04-28T11:26:13;9.38;;;8.18;;
54428;SDS011;40337;52.978;6.310;2023-04-28T11:28:48;10.10;;;8.30;;
54428;SDS011;40337;52.978;6.310;2023-04-28T11:31:15;11.05;;;9.02;;
54428;SDS011;40337;52.978;6.310;2023-04-28T11:33:52;10.23;;;8.40;;
54428;SDS011;40337;52.978;6.310;2023-04-28T11:36:26;10.52;;;8.68;;
54428;SDS011;40337;52.978;6.310;2023-04-28T11:38:57;10.10;;;8.30;;
54428;SDS011;40337;52.978;6.310;2023-04-28T11:41:23;9.45;;;8.05;;
54428;SDS011;40337;52.978;6.310;2023-04-28T11:43:49;10.18;;;8.35;;
54428;SDS011;40337;52.978;6.310;2023-04-28T11:46:15;11.45;;;9.30;;
54428;SDS011;40337;52.978;6.310;2023-04-28T11:48:42;9.20;;;8.30;;
54428;SDS011;40337;52.978;6.310;2023-04-28T11:51:08;10.60;;;8.80;;
54428;SDS011;40337;52.978;6.310;2023-04-28T11:53:43;10.82;;;8.63;;
54428;SDS011;40337;52.978;6.310;2023-04-28T11:58:34;10.35;;;9.05;;
54428;SDS011;40337;52.978;6.310;2023-04-28T12:01:10;11.38;;;9.18;;
54428;SDS011;40337;52.978;6.310;2023-04-28T12:03:41;11.05;;;9.55;;
54428;SDS011;40337;52.978;6.310;2023-04-28T12:06:10;13.25;;;10.30;;
54428;SDS011;40337;52.978;6.310;2023-04-28T12:08:41;11.65;;;10.27;;
54428;SDS011;40337;52.978;6.310;2023-04-28T12:11:10;12.25;;;10.82;;
54428;SDS011;40337;52.978;6.310;2023-04-28T12:13:37;11.98;;;10.23;;
54428;SDS011;40337;52.978;6.310;2023-04-28T12:16:04;13.23;;;11.70;;
54428;SDS011;40337;52.978;6.310;2023-04-28T12:18:34;14.70;;;11.80;;
54428;SDS011;40337;52.978;6.310;2023-04-28T12:21:03;13.27;;;11.75;;
54428;SDS011;40337;52.978;6.310;2023-04-28T12:23:46;14.95;;;11.57;;
54428;SDS011;40337;52.978;6.310;2023-04-28T12:26:12;13.35;;;11.93;;
54428;SDS011;40337;52.978;6.310;2023-04-28T12:28:38;14.43;;;12.20;;
54428;SDS011;40337;52.978;6.310;2023-04-28T12:31:06;15.25;;;12.77;;
54428;SDS011;40337;52.978;6.310;2023-04-28T12:33:32;14.35;;;12.60;;
54428;SDS011;40337;52.978;6.310;2023-04-28T12:36:01;15.25;;;12.68;;
54428;SDS011;40337;52.978;6.310;2023-04-28T12:38:28;14.55;;;12.77;;
54428;SDS011;40337;52.978;6.310;2023-04-28T12:40:54;14.43;;;11.90;;
54428;SDS011;40337;52.978;6.310;2023-04-28T12:43:20;13.85;;;11.82;;
54428;SDS011;40337;52.978;6.310;2023-04-28T12:45:51;14.23;;;12.73;;
54428;SDS011;40337;52.978;6.310;2023-04-28T12:48:17;14.57;;;11.18;;
54428;SDS011;40337;52.978;6.310;2023-04-28T12:50:43;12.95;;;11.48;;
54428;SDS011;40337;52.978;6.310;2023-04-28T12:53:08;11.50;;;10.30;;
54428;SDS011;40337;52.978;6.310;2023-04-28T12:55:35;13.23;;;11.13;;
54428;SDS011;40337;52.978;6.310;2023-04-28T12:58:02;13.00;;;11.27;;
54428;SDS011;40337;52.978;6.310;2023-04-28T13:00:28;13.23;;;11.82;;
54428;SDS011;40337;52.978;6.310;2023-04-28T13:02:54;13.45;;;12.02;;
54428;SDS011;40337;52.978;6.310;2023-04-28T13:05:19;13.40;;;11.90;;
54428;SDS011;40337;52.978;6.310;2023-04-28T13:07:45;13.57;;;12.18;;
54428;SDS011;40337;52.978;6.310;2023-04-28T13:10:13;13.52;;;11.80;;
54428;SDS011;40337;52.978;6.310;2023-04-28T13:12:38;15.00;;;12.90;;
54428;SDS011;40337;52.978;6.310;2023-04-28T13:15:05;15.95;;;13.95;;
54428;SDS011;40337;52.978;6.310;2023-04-28T13:17:31;17.85;;;15.57;;
54428;SDS011;40337;52.978;6.310;2023-04-28T13:19:58;17.88;;;15.55;;
54428;SDS011;40337;52.978;6.310;2023-04-28T13:22:25;16.42;;;14.68;;
54428;SDS011;40337;52.978;6.310;2023-04-28T13:24:51;18.48;;;15.73;;
54428;SDS011;40337;52.978;6.310;2023-04-28T13:27:16;17.17;;;15.38;;
54428;SDS011;40337;52.978;6.310;2023-04-28T13:29:42;18.23;;;16.42;;
54428;SDS011;40337;52.978;6.310;2023-04-28T13:32:08;17.85;;;15.93;;
54428;SDS011;40337;52.978;6.310;2023-04-28T13:34:34;20.90;;;18.45;;
54428;SDS011;40337;52.978;6.310;2023-04-28T13:37:01;22.98;;;20.58;;
54428;SDS011;40337;52.978;6.310;2023-04-28T13:39:27;22.52;;;20.42;;
54428;SDS011;40337;52.978;6.310;2023-04-28T13:41:53;25.33;;;22.92;;
54428;SDS011;40337;52.978;6.310;2023-04-28T13:44:18;27.17;;;24.60;;
54428;SDS011;40337;52.978;6.310;2023-04-28T13:46:44;27.77;;;24.98;;
54428;SDS011;40337;52.978;6.310;2023-04-28T13:49:10;28.58;;;25.80;;
54428;SDS011;40337;52.978;6.310;2023-04-28T13:51:35;29.02;;;26.15;;
54428;SDS011;40337;52.978;6.310;2023-04-28T13:54:01;31.00;;;28.10;;
54428;SDS011;40337;52.978;6.310;2023-04-28T13:56:33;31.38;;;28.40;;
54428;SDS011;40337;52.978;6.310;2023-04-28T13:59:00;31.63;;;28.52;;
54428;SDS011;40337;52.978;6.310;2023-04-28T14:01:26;33.05;;;29.95;;
54428;SDS011;40337;52.978;6.310;2023-04-28T14:03:52;34.15;;;30.92;;
54428;SDS011;40337;52.978;6.310;2023-04-28T14:06:17;32.88;;;29.88;;
54428;SDS011;40337;52.978;6.310;2023-04-28T14:08:43;33.35;;;30.35;;
54428;SDS011;40337;52.978;6.310;2023-04-28T14:11:09;34.30;;;31.10;;
54428;SDS011;40337;52.978;6.310;2023-04-28T14:13:35;32.42;;;29.42;;
54428;SDS011;40337;52.978;6.310;2023-04-28T14:16:01;35.08;;;31.67;;
54428;SDS011;40337;52.978;6.310;2023-04-28T14:18:27;35.38;;;31.98;;
54428;SDS011;40337;52.978;6.310;2023-04-28T14:20:52;34.88;;;31.58;;
54428;SDS011;40337;52.978;6.310;2023-04-28T14:23:19;31.83;;;29.02;;
54428;SDS011;40337;52.978;6.310;2023-04-28T14:25:45;33.05;;;30.02;;
54428;SDS011;40337;52.978;6.310;2023-04-28T14:28:10;34.45;;;31.25;;
54428;SDS011;40337;52.978;6.310;2023-04-28T14:30:36;33.92;;;30.70;;
54428;SDS011;40337;52.978;6.310;2023-04-28T14:33:02;30.60;;;27.88;;
54428;SDS011;40337;52.978;6.310;2023-04-28T14:35:27;31.50;;;28.70;;
54428;SDS011;40337;52.978;6.310;2023-04-28T14:37:55;32.33;;;29.13;;
54428;SDS011;40337;52.978;6.310;2023-04-28T14:40:21;32.25;;;29.25;;
54428;SDS011;40337;52.978;6.310;2023-04-28T14:42:47;30.20;;;27.40;;
54428;SDS011;40337;52.978;6.310;2023-04-28T14:45:13;32.38;;;29.38;;
54428;SDS011;40337;52.978;6.310;2023-04-28T14:47:38;31.30;;;28.55;;
54428;SDS011;40337;52.978;6.310;2023-04-28T14:50:05;31.63;;;28.83;;
54428;SDS011;40337;52.978;6.310;2023-04-28T14:52:31;31.17;;;28.20;;